createdAt,value
2022-12-14T00:01:31.044Z,45813.94
2022-12-14T00:03:57.541Z,45825.91
2022-12-14T00:06:31.196Z,45839.91
2022-12-14T00:09:00.162Z,45825.91
2022-12-14T00:11:28.225Z,45801.94
2022-12-14T00:13:59.982Z,45819.91
2022-12-14T00:16:29.839Z,45803.94
2022-12-14T00:18:58.640Z,45813.94
2022-12-14T00:21:26.128Z,45841.91
2022-12-14T00:23:53.448Z,45825.91
2022-12-14T00:26:28.945Z,45815.94
2022-12-14T00:28:57.626Z,45819.91
2022-12-14T00:31:25.281Z,45831.91
2022-12-14T00:33:52.502Z,45819.91
2022-12-14T00:36:19.788Z,45849.91
2022-12-14T00:38:46.343Z,45833.91
2022-12-14T00:41:12.814Z,45825.91
2022-12-14T00:43:39.719Z,45819.91
2022-12-14T00:46:06.897Z,45829.91
2022-12-14T00:48:33.737Z,45807.94
2022-12-14T00:51:00.192Z,45815.94
2022-12-14T00:53:26.763Z,45827.91
2022-12-14T00:55:53.275Z,45825.91
2022-12-14T00:58:21.652Z,45829.91
2022-12-14T01:00:57.960Z,45823.91
2022-12-14T01:03:24.895Z,45837.91
2022-12-14T01:05:51.583Z,45813.94
2022-12-14T01:08:17.977Z,45821.91
2022-12-14T01:10:44.782Z,45819.91
2022-12-14T01:13:11.558Z,45835.91
2022-12-14T01:15:38.143Z,45837.91
2022-12-14T01:18:04.696Z,45839.91
2022-12-14T01:20:31.120Z,45833.91
2022-12-14T01:22:58.001Z,45821.91
2022-12-14T01:25:24.577Z,45821.91
2022-12-14T01:27:50.996Z,45825.91
2022-12-14T01:30:19.131Z,45833.91
2022-12-14T01:32:46.055Z,45835.91
2022-12-14T01:35:12.479Z,45831.91
2022-12-14T01:37:39.108Z,45833.91
2022-12-14T01:40:05.973Z,45837.91
2022-12-14T01:42:35.551Z,45837.91
2022-12-14T01:45:01.987Z,45821.91
2022-12-14T01:47:42.667Z,45839.91
2022-12-14T01:50:36.963Z,45821.91
2022-12-14T01:53:08.838Z,45841.91
2022-12-14T01:55:40.429Z,45857.91
2022-12-14T01:58:20.034Z,45837.91
2022-12-14T02:00:46.695Z,45845.91
2022-12-14T02:03:19.377Z,45845.91
2022-12-14T02:05:51.098Z,45837.91
2022-12-14T02:08:18.553Z,45857.91
2022-12-14T02:10:46.783Z,45833.91
2022-12-14T02:13:32.593Z,45863.91
2022-12-14T02:15:59.185Z,45849.91
2022-12-14T02:18:29.270Z,45857.91
2022-12-14T02:21:21.335Z,45853.91
2022-12-14T02:24:04.563Z,45841.91
2022-12-14T02:26:43.710Z,45833.91
2022-12-14T02:29:24.302Z,45829.91
2022-12-14T02:31:59.052Z,45829.91
2022-12-14T02:34:37.425Z,45837.91
2022-12-14T02:37:30.343Z,45841.91
2022-12-14T02:40:25.321Z,45847.91
2022-12-14T02:43:06.345Z,45815.94
2022-12-14T02:50:06.744Z,45849.91
2022-12-14T02:53:01.305Z,45841.91
2022-12-14T02:55:44.157Z,45871.88
2022-12-14T02:58:17.203Z,45849.91
2022-12-14T03:00:44.505Z,45869.88
2022-12-14T03:03:11.095Z,45873.88
2022-12-14T03:05:37.636Z,45863.91
2022-12-14T03:08:10.652Z,45841.91
2022-12-14T03:10:55.239Z,45873.88
2022-12-14T03:13:58.271Z,45825.91
2022-12-14T03:16:30.316Z,45849.91
2022-12-14T03:19:02.275Z,45853.91
2022-12-14T03:21:33.604Z,45869.88
2022-12-14T03:24:05.678Z,45853.91
2022-12-14T03:26:47.511Z,45859.91
2022-12-14T03:29:39.110Z,45853.91
2022-12-14T03:32:12.278Z,45847.91
2022-12-14T03:34:49.370Z,45877.88
2022-12-14T03:37:21.610Z,45857.91
2022-12-14T03:39:48.157Z,45841.91
2022-12-14T03:42:38.380Z,45845.91
2022-12-14T03:45:16.737Z,45853.91
2022-12-14T03:48:01.072Z,45863.91
2022-12-14T03:50:43.703Z,45869.88
2022-12-14T03:53:45.068Z,45847.91
2022-12-14T03:56:28.207Z,45839.91
2022-12-14T03:59:05.704Z,45861.91
2022-12-14T04:02:09.553Z,45837.91
2022-12-14T04:04:45.665Z,45859.91
2022-12-14T04:07:20.611Z,45837.91
2022-12-14T04:10:03.573Z,45825.91
2022-12-14T04:12:56.925Z,45849.91
2022-12-14T04:15:46.046Z,45841.91
2022-12-14T04:18:37.344Z,45837.91
2022-12-14T04:21:13.783Z,45835.91
2022-12-14T04:24:12.369Z,45851.91
2022-12-14T04:26:43.907Z,45841.91
2022-12-14T04:29:34.504Z,45839.91
2022-12-14T04:32:21.905Z,45865.88
2022-12-14T04:34:54.576Z,45851.91
2022-12-14T04:37:25.250Z,45841.91
2022-12-14T04:40:36.866Z,45853.91
2022-12-14T04:43:07.671Z,45837.91
2022-12-14T04:45:45.458Z,45851.91
2022-12-14T04:48:25.378Z,45861.91
2022-12-14T04:51:01.144Z,45829.91
2022-12-14T04:53:31.018Z,45823.91
2022-12-14T04:56:06.834Z,45813.94
2022-12-14T04:58:35.168Z,45841.91
2022-12-14T05:01:04.580Z,45845.91
2022-12-14T05:03:35.567Z,45845.91
2022-12-14T05:06:12.244Z,45849.91
2022-12-14T05:08:50.495Z,45857.91
2022-12-14T05:11:51.927Z,45841.91
2022-12-14T05:14:16.183Z,45825.91
2022-12-14T05:16:42.969Z,45829.91
2022-12-14T05:19:15.755Z,45845.91
2022-12-14T05:21:48.087Z,45851.91
2022-12-14T05:24:16.015Z,45859.91
2022-12-14T05:26:42.908Z,45867.88
2022-12-14T05:29:09.741Z,45849.91
2022-12-14T05:31:36.243Z,45861.91
2022-12-14T05:34:02.685Z,45839.91
2022-12-14T05:36:29.382Z,45821.91
2022-12-14T05:38:55.807Z,45833.91
2022-12-14T05:41:22.411Z,45841.91
2022-12-14T05:43:48.897Z,45845.91
2022-12-14T05:46:16.061Z,45849.91
2022-12-14T05:48:46.123Z,45845.91
2022-12-14T05:51:15.755Z,45845.91
2022-12-14T05:53:42.327Z,45841.91
2022-12-14T05:56:10.029Z,45845.91
2022-12-14T05:58:37.258Z,45829.91
2022-12-14T06:01:12.734Z,45857.91
2022-12-14T06:03:43.632Z,45841.91
2022-12-14T06:06:12.037Z,45813.94
2022-12-14T06:08:41.181Z,45843.91
2022-12-14T06:11:11.082Z,45851.91
2022-12-14T06:13:39.344Z,45857.91
2022-12-14T06:16:16.692Z,45837.91
2022-12-14T06:18:45.220Z,45833.91
2022-12-14T06:21:13.146Z,45833.91
2022-12-14T06:23:40.144Z,45831.91
2022-12-14T06:26:06.894Z,45843.91
2022-12-14T06:28:33.350Z,45849.91
2022-12-14T06:30:59.931Z,45853.91
2022-12-14T06:33:27.127Z,45841.91
2022-12-14T06:35:53.914Z,45813.94
2022-12-14T06:38:21.016Z,45835.91
2022-12-14T06:40:47.879Z,45845.91
2022-12-14T06:43:14.439Z,45857.91
2022-12-14T06:45:41.091Z,45829.91
2022-12-14T06:48:07.919Z,45829.91
2022-12-14T06:50:34.299Z,45833.91
2022-12-14T06:53:01.397Z,45837.91
2022-12-14T06:55:29.094Z,45845.91
2022-12-14T06:57:56.166Z,45821.91
2022-12-14T07:00:24.358Z,45827.91
2022-12-14T07:02:51.120Z,45849.91
2022-12-14T07:05:17.618Z,45845.91
2022-12-14T07:07:45.253Z,45813.94
2022-12-14T07:10:12.758Z,45825.91
2022-12-14T07:12:39.426Z,45827.91
2022-12-14T07:15:06.332Z,45829.91
2022-12-14T07:17:35.721Z,45837.91
2022-12-14T07:20:02.287Z,45845.91
2022-12-14T07:22:28.634Z,45833.91
2022-12-14T07:24:55.540Z,45833.91
2022-12-14T07:27:23.877Z,45805.94
2022-12-14T07:29:50.251Z,45837.91
2022-12-14T07:32:16.610Z,45815.94
2022-12-14T07:34:43.132Z,45835.91
2022-12-14T07:37:09.643Z,45845.91
2022-12-14T07:39:36.380Z,45837.91
2022-12-14T07:42:02.789Z,45825.91
2022-12-14T07:44:29.167Z,45809.94
2022-12-14T07:46:55.942Z,45845.91
2022-12-14T07:49:22.627Z,45847.91
2022-12-14T07:51:49.323Z,45841.91
2022-12-14T07:54:15.808Z,45809.94
2022-12-14T07:56:43.258Z,45829.91
2022-12-14T07:59:14.923Z,45819.91
2022-12-14T08:01:43.413Z,45837.91
2022-12-14T08:04:13.150Z,45809.94
2022-12-14T08:06:40.653Z,45825.91
2022-12-14T08:09:09.786Z,45809.94
2022-12-14T08:11:36.311Z,45813.94
2022-12-14T08:14:06.976Z,45827.91
2022-12-14T08:16:34.048Z,45821.91
2022-12-14T08:19:01.377Z,45813.94
2022-12-14T08:21:28.767Z,45825.91
2022-12-14T08:23:56.990Z,45837.91
2022-12-14T08:26:30.051Z,45817.91
2022-12-14T08:28:59.835Z,45815.94
2022-12-14T08:31:27.984Z,45841.91
2022-12-14T08:33:54.624Z,45837.91
2022-12-14T08:36:24.454Z,45829.91
2022-12-14T08:38:55.849Z,45849.91
2022-12-14T08:41:23.287Z,45817.91
2022-12-14T08:43:54.584Z,45807.94
2022-12-14T08:46:22.005Z,45853.91
2022-12-14T08:48:50.758Z,45845.91
2022-12-14T08:51:17.562Z,45821.91
2022-12-14T08:53:47.996Z,45811.94
2022-12-14T08:56:21.139Z,45799.94
2022-12-14T08:58:47.938Z,45827.91
2022-12-14T09:01:17.129Z,45811.94
2022-12-14T09:03:45.149Z,45829.91
2022-12-14T09:06:15.052Z,45825.91
2022-12-14T09:08:41.616Z,45809.94
2022-12-14T09:11:12.443Z,45817.91
2022-12-14T09:13:39.240Z,45795.94
2022-12-14T09:16:17.779Z,45817.91
2022-12-14T09:18:45.767Z,45815.94
2022-12-14T09:21:12.380Z,45815.94
2022-12-14T09:23:40.159Z,45817.91
2022-12-14T09:26:07.967Z,45791.94
2022-12-14T09:28:37.329Z,45823.91
2022-12-14T09:31:06.775Z,45815.94
2022-12-14T09:33:34.371Z,45797.94
2022-12-14T09:36:09.418Z,45823.91
2022-12-14T09:38:39.173Z,45801.94
2022-12-14T09:41:35.725Z,45817.91
2022-12-14T09:44:18.809Z,45803.94
2022-12-14T09:46:57.358Z,45813.94
2022-12-14T09:49:31.015Z,45807.94
2022-12-14T09:52:01.755Z,45841.91
2022-12-14T09:54:33.187Z,45809.94
2022-12-14T09:57:05.657Z,45821.91
2022-12-14T09:59:33.926Z,45793.94
2022-12-14T10:02:30.444Z,45825.91
2022-12-14T10:05:14.313Z,45805.94
2022-12-14T10:08:06.639Z,45821.91
2022-12-14T10:11:00.434Z,45809.94
2022-12-14T10:13:36.181Z,45825.91
2022-12-14T10:16:38.516Z,45801.94
2022-12-14T10:19:23.357Z,45843.91
2022-12-14T10:21:57.300Z,45801.94
2022-12-14T10:24:30.234Z,45833.91
2022-12-14T10:26:57.483Z,45833.91
2022-12-14T10:29:37.209Z,45821.91
2022-12-14T10:32:19.088Z,45811.94
2022-12-14T10:34:45.603Z,45805.94
2022-12-14T10:37:37.412Z,45815.94
2022-12-14T10:40:29.244Z,45825.91
2022-12-14T10:43:17.812Z,45817.91
2022-12-14T10:45:56.554Z,45797.94
2022-12-14T10:48:39.709Z,45821.91
2022-12-14T10:51:12.226Z,45785.94
2022-12-14T10:53:51.310Z,45811.94
2022-12-14T10:56:41.169Z,45789.94
2022-12-14T10:59:26.151Z,45789.94
2022-12-14T11:01:59.306Z,45793.94
2022-12-14T11:04:47.137Z,45791.94
2022-12-14T11:07:16.099Z,45793.94
2022-12-14T11:09:43.661Z,45781.94
2022-12-14T11:12:12.869Z,45773.94
2022-12-14T11:14:56.184Z,45781.94
2022-12-14T11:17:30.078Z,45757.97
2022-12-14T11:20:08.785Z,45797.94
2022-12-14T11:22:45.713Z,45751.97
2022-12-14T11:25:28.677Z,45773.94
2022-12-14T11:27:56.150Z,45791.94
2022-12-14T11:30:22.569Z,45801.94
2022-12-14T11:32:49.671Z,45773.94
2022-12-14T11:35:20.968Z,45755.97
2022-12-14T11:37:57.835Z,45741.97
2022-12-14T11:40:25.935Z,45759.97
2022-12-14T11:42:59.842Z,45769.97
2022-12-14T11:45:26.192Z,45763.97
2022-12-14T11:48:15.338Z,45755.97
2022-12-14T11:50:44.584Z,45765.97
2022-12-14T11:53:14.458Z,45741.97
2022-12-14T11:55:45.569Z,45769.97
2022-12-14T11:58:19.019Z,45749.97
2022-12-14T12:00:59.182Z,45769.97
2022-12-14T12:03:41.599Z,45753.97
2022-12-14T12:06:14.967Z,45735.97
2022-12-14T12:08:44.296Z,45761.97
2022-12-14T12:11:21.151Z,45749.97
2022-12-14T12:13:52.308Z,45741.97
2022-12-14T12:16:22.149Z,45761.97
2022-12-14T12:18:54.196Z,45745.97
2022-12-14T12:21:32.020Z,45739.97
2022-12-14T12:24:13.378Z,45741.97
2022-12-14T12:26:49.769Z,45741.97
2022-12-14T12:29:26.793Z,45733.97
2022-12-14T12:32:23.587Z,45714.00
2022-12-14T12:35:14.708Z,45729.97
2022-12-14T12:37:46.372Z,45739.97
2022-12-14T12:40:25.321Z,45716.00
2022-12-14T12:43:15.950Z,45706.00
2022-12-14T12:45:57.996Z,45716.00
2022-12-14T12:48:41.448Z,45718.00
2022-12-14T12:51:15.165Z,45710.00
2022-12-14T12:53:45.322Z,45706.00
2022-12-14T12:56:15.591Z,45704.00
2022-12-14T12:58:50.611Z,45690.00
2022-12-14T13:01:27.432Z,45682.00
2022-12-14T13:03:58.899Z,45686.00
2022-12-14T13:06:31.585Z,45662.03
2022-12-14T13:09:01.822Z,45634.06
2022-12-14T13:11:35.739Z,45656.03
2022-12-14T13:14:09.504Z,45650.03
2022-12-14T13:16:38.842Z,45634.06
2022-12-14T13:22:07.949Z,45626.06
2022-12-14T13:24:36.450Z,45598.06
2022-12-14T13:27:27.840Z,45624.06
2022-12-14T13:30:14.257Z,45612.06
2022-12-14T13:33:02.279Z,45594.09
2022-12-14T13:36:16.432Z,45632.06
2022-12-14T13:38:51.990Z,45630.06
2022-12-14T13:41:39.812Z,45634.06
2022-12-14T13:44:43.865Z,45622.06
2022-12-14T13:47:15.332Z,45622.06
2022-12-14T13:50:35.516Z,45656.03
2022-12-14T13:53:04.543Z,45672.03
2022-12-14T13:55:35.836Z,45666.03
2022-12-14T13:58:31.846Z,45666.03
2022-12-14T14:01:13.564Z,45650.03
2022-12-14T14:03:41.385Z,45690.00
2022-12-14T14:06:16.015Z,45686.00
2022-12-14T14:08:44.604Z,45684.00
2022-12-14T14:11:39.368Z,45694.00
2022-12-14T14:14:22.307Z,45698.00
2022-12-14T14:16:54.538Z,45714.00
2022-12-14T14:19:24.958Z,45710.00
2022-12-14T14:25:12.962Z,45702.00
2022-12-14T14:27:50.537Z,45716.00
2022-12-14T14:30:37.998Z,45702.00
2022-12-14T14:33:45.593Z,45714.00
2022-12-14T14:36:33.124Z,45731.97
2022-12-14T14:39:38.317Z,45733.97
2022-12-14T14:41:55.472Z,45745.97
2022-12-14T14:44:28.852Z,45741.97
2022-12-14T14:46:56.262Z,45735.97
2022-12-14T14:49:27.004Z,45733.97
2022-12-14T14:51:53.660Z,45722.00
2022-12-14T14:54:54.050Z,45733.97
2022-12-14T14:57:52.107Z,45743.97
2022-12-14T15:00:18.782Z,45741.97
2022-12-14T15:02:45.934Z,45741.97
2022-12-14T15:08:18.472Z,45751.97
2022-12-14T15:10:46.446Z,45767.97
2022-12-14T15:13:31.255Z,45763.97
2022-12-14T15:15:57.913Z,45735.97
2022-12-14T15:18:27.181Z,45745.97
2022-12-14T15:21:07.777Z,45753.97
2022-12-14T15:23:40.788Z,45775.94
2022-12-14T15:26:17.447Z,45765.97
2022-12-14T15:28:53.418Z,45771.94
2022-12-14T15:31:35.334Z,45755.97
2022-12-14T15:34:03.000Z,45757.97
2022-12-14T15:36:34.075Z,45753.97
2022-12-14T15:39:00.611Z,45777.94
2022-12-14T15:41:29.961Z,45759.97
2022-12-14T15:43:59.574Z,45769.97
2022-12-14T15:46:29.183Z,45777.94
2022-12-14T15:49:03.455Z,45755.97
2022-12-14T15:51:37.251Z,45793.94
2022-12-14T15:54:06.555Z,45781.94
2022-12-14T15:56:36.719Z,45769.97
2022-12-14T15:59:13.556Z,45773.94
2022-12-14T16:01:44.887Z,45777.94
2022-12-14T16:04:25.683Z,45799.94
2022-12-14T16:07:07.878Z,45789.94
2022-12-14T16:09:40.651Z,45773.94
2022-12-14T16:12:14.988Z,45795.94
2022-12-14T16:14:54.072Z,45793.94
2022-12-14T16:17:33.217Z,45779.94
2022-12-14T16:20:09.804Z,45817.91
2022-12-14T16:22:40.416Z,45801.94
2022-12-14T16:25:09.528Z,45813.94
2022-12-14T16:27:42.219Z,45799.94
2022-12-14T16:30:20.056Z,45813.94
2022-12-14T16:32:49.870Z,45801.94
2022-12-14T16:35:24.529Z,45825.91
2022-12-14T16:37:57.973Z,45815.94
2022-12-14T16:40:34.405Z,45813.94
2022-12-14T16:43:01.652Z,45829.91
2022-12-14T16:45:59.915Z,45833.91
2022-12-14T16:48:28.284Z,45841.91
2022-12-14T16:51:19.977Z,45803.94
2022-12-14T16:53:51.194Z,45845.91
2022-12-14T16:56:21.402Z,45833.91
2022-12-14T16:58:59.766Z,45809.94
2022-12-14T17:01:27.094Z,45809.94
2022-12-14T17:04:04.016Z,45805.94
2022-12-14T17:06:39.017Z,45837.91
2022-12-14T17:09:05.922Z,45839.91
2022-12-14T17:11:32.864Z,45837.91
2022-12-14T17:13:59.232Z,45845.91
2022-12-14T17:16:25.736Z,45833.91
2022-12-14T17:18:52.497Z,45839.91
2022-12-14T17:21:24.646Z,45845.91
2022-12-14T17:23:51.649Z,45835.91
2022-12-14T17:26:28.106Z,45837.91
2022-12-14T17:28:55.211Z,45861.91
2022-12-14T17:31:24.281Z,45865.88
2022-12-14T17:33:52.791Z,45849.91
2022-12-14T17:36:19.244Z,45837.91
2022-12-14T17:39:24.687Z,45853.91
2022-12-14T17:45:38.774Z,45861.91
2022-12-14T17:48:05.920Z,45833.91
2022-12-14T17:50:33.333Z,45833.91
2022-12-14T17:53:00.152Z,45865.88
2022-12-14T17:55:28.431Z,45847.91
2022-12-14T17:57:55.634Z,45833.91
2022-12-14T18:00:46.579Z,45823.91
2022-12-14T18:03:14.350Z,45853.91
2022-12-14T18:05:48.049Z,45851.91
2022-12-14T18:08:22.450Z,45883.88
2022-12-14T18:10:52.729Z,45857.91
2022-12-14T18:13:19.172Z,45861.91
2022-12-14T18:15:50.064Z,45837.91
2022-12-14T18:18:18.566Z,45873.88
2022-12-14T18:20:49.730Z,45861.91
2022-12-14T18:23:16.947Z,45841.91
2022-12-14T18:26:03.128Z,45889.88
2022-12-14T18:28:29.717Z,45869.88
2022-12-14T18:30:59.892Z,45861.91
2022-12-14T18:33:27.847Z,45873.88
2022-12-14T18:35:56.802Z,45867.88
2022-12-14T18:38:24.030Z,45877.88
2022-12-14T18:40:52.982Z,45865.88
2022-12-14T18:43:23.331Z,45869.88
2022-12-14T18:45:51.926Z,45857.91
2022-12-14T18:48:18.454Z,45881.88
2022-12-14T18:50:44.946Z,45879.88
2022-12-14T18:53:16.690Z,45883.88
2022-12-14T18:55:43.902Z,45869.88
2022-12-14T18:58:21.252Z,45861.91
2022-12-14T19:00:51.170Z,45853.91
2022-12-14T19:03:18.190Z,45873.88
2022-12-14T19:05:45.265Z,45873.88
2022-12-14T19:08:12.617Z,45889.88
2022-12-14T19:10:42.655Z,45893.88
2022-12-14T19:13:15.046Z,45901.88
2022-12-14T19:15:41.726Z,45879.88
2022-12-14T19:18:08.168Z,45889.88
2022-12-14T19:20:34.704Z,45885.88
2022-12-14T19:23:02.354Z,45899.88
2022-12-14T19:25:29.132Z,45893.88
2022-12-14T19:30:44.146Z,45913.84
2022-12-14T19:33:11.021Z,45895.88
2022-12-14T19:35:41.168Z,45881.88
2022-12-14T19:38:13.362Z,45909.88
2022-12-14T19:40:40.267Z,45911.84
2022-12-14T19:43:06.635Z,45889.88
2022-12-14T19:45:33.063Z,45883.88
2022-12-14T19:47:59.458Z,45905.88
2022-12-14T19:50:25.976Z,45881.88
2022-12-14T19:52:52.508Z,45901.88
2022-12-14T19:55:19.064Z,45899.88
2022-12-14T19:57:45.539Z,45889.88
2022-12-14T20:00:12.228Z,45883.88
2022-12-14T20:02:39.000Z,45893.88
2022-12-14T20:05:06.484Z,45905.88
2022-12-14T20:07:36.256Z,45909.88
2022-12-14T20:10:05.723Z,45897.88
2022-12-14T20:12:33.413Z,45897.88
2022-12-14T20:14:59.869Z,45893.88
2022-12-14T20:17:26.651Z,45913.84
2022-12-14T20:19:53.067Z,45901.88
2022-12-14T20:22:19.461Z,45905.88
2022-12-14T20:24:49.676Z,45889.88
2022-12-14T20:27:17.172Z,45915.84
2022-12-14T20:29:43.605Z,45909.88
2022-12-14T20:32:11.328Z,45907.88
2022-12-14T20:34:39.045Z,45895.88
2022-12-14T20:37:06.489Z,45897.88
2022-12-14T20:39:32.926Z,45907.88
2022-12-14T20:41:59.353Z,45879.88
2022-12-14T20:44:25.986Z,45885.88
2022-12-14T20:46:52.549Z,45911.84
2022-12-14T20:49:21.131Z,45921.84
2022-12-14T20:51:48.260Z,45897.88
2022-12-14T20:54:18.309Z,45899.88
2022-12-14T20:56:49.414Z,45921.84
2022-12-14T20:59:16.778Z,45893.88
2022-12-14T21:01:43.790Z,45917.84
2022-12-14T21:04:10.396Z,45923.84
2022-12-14T21:06:39.688Z,45905.88
2022-12-14T21:09:10.090Z,45897.88
2022-12-14T21:12:03.724Z,45939.84
2022-12-14T21:14:32.268Z,45937.84
2022-12-14T21:16:59.706Z,45915.84
2022-12-14T21:19:26.810Z,45905.88
2022-12-14T21:21:54.401Z,45925.84
2022-12-14T21:24:44.716Z,45905.88
2022-12-14T21:27:14.783Z,45895.88
2022-12-14T21:29:41.167Z,45921.84
2022-12-14T21:32:07.744Z,45917.84
2022-12-14T21:34:34.236Z,45903.88
2022-12-14T21:37:00.635Z,45905.88
2022-12-14T21:39:27.019Z,45909.88
2022-12-14T21:42:12.348Z,45925.84
2022-12-14T21:44:44.139Z,45909.88
2022-12-14T21:47:16.694Z,45889.88
2022-12-14T21:49:44.683Z,45929.84
2022-12-14T21:52:13.580Z,45921.84
2022-12-14T21:54:40.615Z,45921.84
2022-12-14T21:57:25.446Z,45921.84
2022-12-14T21:59:51.824Z,45925.84
2022-12-14T22:02:21.532Z,45917.84
2022-12-14T22:04:48.844Z,45921.84
2022-12-14T22:07:20.415Z,45919.84
2022-12-14T22:09:49.752Z,45925.84
2022-12-14T22:12:18.339Z,45921.84
2022-12-14T22:14:44.779Z,45909.88
2022-12-14T22:17:13.827Z,45909.88
2022-12-14T22:19:40.252Z,45943.84
2022-12-14T22:22:07.044Z,45949.84
2022-12-14T22:24:33.470Z,45945.84
2022-12-14T22:27:00.144Z,45923.84
2022-12-14T22:29:26.555Z,45943.84
2022-12-14T22:31:53.075Z,45925.84
2022-12-14T22:34:22.550Z,45945.84
2022-12-14T22:36:50.589Z,45929.84
2022-12-14T22:39:19.783Z,45957.84
2022-12-14T22:41:46.798Z,45929.84
2022-12-14T22:44:13.345Z,45905.88
2022-12-14T22:46:40.311Z,45939.84
2022-12-14T22:49:07.139Z,45931.84
2022-12-14T22:51:33.945Z,45925.84
2022-12-14T22:54:00.483Z,45937.84
2022-12-14T22:56:29.465Z,45911.84
2022-12-14T22:59:13.543Z,45929.84
2022-12-14T23:01:40.880Z,45965.81
2022-12-14T23:04:10.311Z,45937.84
2022-12-14T23:06:36.923Z,45953.84
2022-12-14T23:09:22.706Z,45923.84
2022-12-14T23:12:11.295Z,45945.84
2022-12-14T23:14:56.700Z,45929.84
2022-12-14T23:17:42.073Z,45953.84
2022-12-14T23:20:27.867Z,45923.84
2022-12-14T23:23:12.629Z,45945.84
2022-12-14T23:25:57.373Z,45957.84
2022-12-14T23:28:42.277Z,45949.84
2022-12-14T23:31:27.383Z,45943.84
2022-12-14T23:34:12.571Z,45937.84
2022-12-14T23:36:57.330Z,45941.84
2022-12-14T23:39:42.263Z,45931.84
2022-12-14T23:42:27.452Z,45945.84
2022-12-14T23:45:12.529Z,45967.81
2022-12-14T23:47:57.417Z,45937.84
2022-12-14T23:50:42.297Z,45949.84
2022-12-14T23:53:27.689Z,45961.81
2022-12-14T23:56:13.556Z,45907.88
2022-12-14T23:58:58.359Z,45937.84
